Time;durP1;ratioP1;P1;durP2;ratioP2;P2;SDS_P1;SDS_P2;PMS_P1;PMS_P2;Temp;Humidity;BMP_temperature;BMP_pressure;BME280_temperature;BME280_humidity;BME280_pressure;Samples;Min_cycle;Max_cycle;Signal;HPM_P1;HPM_P2
2022/03/19 00:01:26;;;;;;;34.43;15.13;;;;;;;5.17;67.84;104132.19;1727884;81;21044;-75
2022/03/19 00:03:52;;;;;;;28.70;13.38;;;;;;;5.10;67.98;104135.85;1727974;81;21104;-75
2022/03/19 00:06:20;;;;;;;24.70;13.38;;;;;;;5.05;68.07;104136.70;1749475;81;21079;-75
2022/03/19 00:08:46;;;;;;;32.30;13.85;;;;;;;5.05;68.22;104135.80;1743136;81;21121;-76
2022/03/19 00:11:13;;;;;;;36.95;16.85;;;;;;;5.05;68.38;104135.80;1755526;81;21045;-76
2022/03/19 00:13:40;;;;;;;35.13;16.95;;;;;;;5.03;68.42;104134.69;1728213;81;22094;-76
2022/03/19 00:16:06;;;;;;;36.17;18.00;;;;;;;4.96;68.45;104142.30;1749630;81;21116;-76
2022/03/19 00:18:33;;;;;;;46.28;18.60;;;;;;;4.91;68.51;104137.37;1748874;81;21032;-76
2022/03/19 00:20:59;;;;;;;39.15;17.98;;;;;;;4.84;68.70;104140.66;1746892;81;21809;-75
2022/03/19 00:23:26;;;;;;;41.35;19.40;;;;;;;4.82;68.89;104143.50;1751541;81;21036;-76
2022/03/19 00:25:53;;;;;;;38.48;18.17;;;;;;;4.79;69.08;104139.27;1744248;81;21060;-75
2022/03/19 00:28:19;;;;;;;40.60;19.32;;;;;;;4.80;69.12;104141.09;1732976;81;21688;-75
2022/03/19 00:30:49;;;;;;;36.38;19.23;;;;;;;4.80;69.29;104146.31;1755211;80;21122;-75
2022/03/19 00:33:16;;;;;;;33.40;17.20;;;;;;;4.79;69.27;104142.27;1758564;80;21902;-76
2022/03/19 00:35:42;;;;;;;39.40;16.23;;;;;;;4.80;69.38;104143.70;1780982;80;21522;-75
2022/03/19 00:38:09;;;;;;;32.17;15.53;;;;;;;4.83;69.46;104142.72;1758957;80;21407;-75
2022/03/19 00:40:36;;;;;;;36.13;16.02;;;;;;;4.82;69.50;104142.55;1761634;80;21519;-75
2022/03/19 00:43:02;;;;;;;31.00;15.30;;;;;;;4.89;69.63;104148.04;1777595;80;21046;-75
2022/03/19 00:45:29;;;;;;;31.42;14.60;;;;;;;4.94;69.61;104151.66;1772237;80;22607;-75
2022/03/19 00:47:56;;;;;;;33.25;15.63;;;;;;;4.96;69.64;104154.05;1781447;80;21276;-75
2022/03/19 00:50:22;;;;;;;31.00;14.53;;;;;;;4.95;69.54;104148.66;1770611;80;21057;-75
2022/03/19 00:52:49;;;;;;;33.40;14.90;;;;;;;4.95;69.48;104155.19;1780784;80;21510;-75
2022/03/19 00:55:16;;;;;;;30.25;14.68;;;;;;;4.93;69.49;104151.11;1775337;80;21054;-74
2022/03/19 00:57:46;;;;;;;34.25;14.85;;;;;;;4.94;69.60;104144.22;1781329;80;21851;-74
2022/03/19 01:00:15;;;;;;;35.15;14.95;;;;;;;4.94;69.56;104147.75;1775308;80;21101;-75
2022/03/19 01:02:43;;;;;;;30.70;14.83;;;;;;;4.93;69.58;104154.11;1772039;80;21105;-75
2022/03/19 01:05:10;;;;;;;34.20;15.60;;;;;;;4.97;69.69;104156.27;1758917;80;21094;-75
2022/03/19 01:07:50;;;;;;;32.30;15.72;;;;;;;4.98;69.69;104151.59;1729094;81;21047;-75
2022/03/19 01:10:24;;;;;;;38.73;19.07;;;;;;;4.96;69.62;104151.43;1766708;80;21733;-75
2022/03/19 01:12:53;;;;;;;29.85;16.80;;;;;;;4.92;69.67;104150.59;1764607;80;21421;-75
2022/03/19 01:15:20;;;;;;;39.10;17.12;;;;;;;4.89;69.72;104157.17;1777860;80;21069;-75
2022/03/19 01:17:46;;;;;;;38.73;17.40;;;;;;;4.85;69.81;104163.38;1758798;80;21456;-75
2022/03/19 01:20:14;;;;;;;34.92;16.70;;;;;;;4.84;69.88;104163.20;1758591;80;21097;-75
2022/03/19 01:22:42;;;;;;;39.63;19.25;;;;;;;4.86;70.06;104161.32;1758800;80;21194;-76
2022/03/19 01:25:09;;;;;;;34.33;17.60;;;;;;;4.86;70.02;104156.45;1758886;80;21077;-75
2022/03/19 01:27:37;;;;;;;37.48;17.37;;;;;;;4.86;70.04;104157.77;1759435;80;21046;-76
2022/03/19 01:30:06;;;;;;;37.10;16.80;;;;;;;4.86;70.02;104157.41;1753886;80;21139;-76
2022/03/19 01:32:33;;;;;;;40.63;17.80;;;;;;;4.86;70.12;104162.98;1728135;80;21097;-76
2022/03/19 01:35:00;;;;;;;40.92;18.02;;;;;;;4.83;70.04;104167.91;1745886;81;22541;-75
2022/03/19 01:37:26;;;;;;;37.20;18.75;;;;;;;4.78;70.11;104166.11;1742872;80;21057;-75
2022/03/19 01:39:55;;;;;;;36.17;17.50;;;;;;;4.77;70.19;104163.37;1758584;80;21054;-75
2022/03/19 01:42:30;;;;;;;38.60;18.23;;;;;;;4.80;70.31;104167.58;1735066;80;21071;-75
2022/03/19 01:44:56;;;;;;;37.45;17.90;;;;;;;4.81;70.30;104174.27;1769710;80;21599;-75
2022/03/19 01:47:23;;;;;;;30.85;15.88;;;;;;;4.77;70.24;104172.11;1732224;80;22435;-75
2022/03/19 01:49:50;;;;;;;34.75;18.42;;;;;;;4.72;70.31;104172.40;1751790;80;21527;-74
2022/03/19 01:52:17;;;;;;;30.75;16.32;;;;;;;4.70;70.49;104171.32;1746315;80;21070;-75
2022/03/19 01:54:46;;;;;;;32.38;18.62;;;;;;;4.66;70.56;104168.77;1770892;80;21077;-75
2022/03/19 01:57:22;;;;;;;31.80;16.97;;;;;;;4.66;70.69;104173.99;1728369;80;21074;-74
2022/03/19 01:59:48;;;;;;;37.00;18.75;;;;;;;4.68;70.76;104163.33;1737138;80;22648;-75
2022/03/19 02:02:15;;;;;;;39.53;18.73;;;;;;;4.72;70.92;104172.01;1758385;81;21071;-75
2022/03/19 02:04:42;;;;;;;32.13;17.65;;;;;;;4.74;70.89;104169.56;1737068;80;21080;-75
2022/03/19 02:07:10;;;;;;;41.92;18.98;;;;;;;4.72;70.94;104165.48;1742602;81;21077;-75
2022/03/19 02:09:37;;;;;;;46.68;21.42;;;;;;;4.69;70.92;104170.38;1728074;80;21443;-76
2022/03/19 02:12:04;;;;;;;39.18;18.85;;;;;;;4.68;71.02;104166.84;1755624;80;21935;-76
2022/03/19 02:14:36;;;;;;;36.85;20.75;;;;;;;4.70;71.17;104168.32;1742799;80;21082;-76
2022/03/19 02:17:04;;;;;;;36.60;19.02;;;;;;;4.76;71.26;104168.03;1739958;81;21067;-76
2022/03/19 02:19:31;;;;;;;34.75;19.27;;;;;;;4.79;71.25;104165.36;1737445;80;21081;-76
2022/03/19 02:21:58;;;;;;;44.75;20.00;;;;;;;4.76;71.14;104166.34;1769954;80;21118;-75
2022/03/19 02:27:09;;;;;;;35.90;19.85;;;;;;;4.75;71.38;104170.09;1749752;80;20999;-75
2022/03/19 02:29:36;;;;;;;42.95;21.27;;;;;;;4.81;71.50;104165.52;1751995;80;21410;-75
2022/03/19 02:32:05;;;;;;;35.00;19.62;;;;;;;4.80;71.44;104161.05;1764498;80;21517;-75
2022/03/19 02:34:35;;;;;;;42.05;20.20;;;;;;;4.73;71.60;104166.04;1767974;80;21090;-75
2022/03/19 02:37:01;;;;;;;40.12;20.85;;;;;;;4.61;71.56;104161.75;1773126;80;21608;-76
2022/03/19 02:39:31;;;;;;;38.88;19.35;;;;;;;4.58;71.70;104164.06;1764038;80;21039;-76
2022/03/19 02:42:01;;;;;;;33.33;18.10;;;;;;;4.58;71.73;104170.94;1763493;80;21031;-76
2022/03/19 02:44:28;;;;;;;32.42;16.77;;;;;;;4.56;71.79;104168.55;1763048;80;21030;-76
2022/03/19 02:46:57;;;;;;;26.20;14.93;;;;;;;4.55;71.90;104175.47;1783107;80;21073;-76
2022/03/19 02:49:23;;;;;;;33.02;16.57;;;;;;;4.56;71.98;104173.42;1775795;80;21710;-77
2022/03/19 02:51:52;;;;;;;31.23;16.15;;;;;;;4.54;72.02;104175.30;1754528;80;21135;-76
2022/03/19 02:54:20;;;;;;;34.15;16.10;;;;;;;4.55;72.13;104175.86;1758172;80;21080;-76
2022/03/19 02:56:47;;;;;;;35.35;17.30;;;;;;;4.56;72.08;104176.39;1769128;80;21138;-77
2022/03/19 02:59:20;;;;;;;33.80;18.30;;;;;;;4.53;72.14;104178.30;1754936;80;21069;-76
2022/03/19 03:01:49;;;;;;;35.45;18.95;;;;;;;4.55;72.21;104175.86;1767578;80;21755;-77
2022/03/19 03:04:15;;;;;;;40.03;22.40;;;;;;;4.51;72.36;104178.53;1785272;80;21042;-77
2022/03/19 03:06:44;;;;;;;42.58;22.13;;;;;;;4.54;72.50;104179.22;1784955;80;21070;-77
2022/03/19 03:09:11;;;;;;;40.10;20.48;;;;;;;4.52;72.45;104182.05;1785450;80;21090;-77
2022/03/19 03:11:38;;;;;;;41.95;23.30;;;;;;;4.48;72.57;104179.11;1785506;80;21524;-77
2022/03/19 03:14:06;;;;;;;47.50;22.77;;;;;;;4.45;72.60;104180.50;1785921;80;22412;-77
2022/03/19 03:16:32;;;;;;;42.70;23.73;;;;;;;4.33;72.76;104179.20;1764077;80;21082;-77
2022/03/19 03:19:07;;;;;;;44.25;24.63;;;;;;;4.25;72.95;104182.30;1785734;80;21548;-76
2022/03/19 03:21:34;;;;;;;51.60;26.57;;;;;;;4.16;73.02;104180.94;1785362;80;21153;-77
2022/03/19 03:24:01;;;;;;;53.10;28.30;;;;;;;4.07;73.14;104183.52;1782387;80;21130;-77
2022/03/19 03:26:28;;;;;;;51.58;27.62;;;;;;;4.06;73.41;104182.04;1785110;79;21928;-76
2022/03/19 03:28:55;;;;;;;51.85;27.25;;;;;;;4.07;73.55;104182.20;1780751;80;21066;-76
2022/03/19 03:31:21;;;;;;;58.15;30.92;;;;;;;4.11;73.58;104182.52;1788535;80;21121;-76
2022/03/19 03:33:48;;;;;;;58.40;30.15;;;;;;;4.15;73.67;104188.23;1755217;80;21093;-76
2022/03/19 03:36:15;;;;;;;57.40;29.37;;;;;;;4.19;73.71;104193.40;1789822;80;21551;-77
2022/03/19 03:38:41;;;;;;;53.35;28.10;;;;;;;4.24;73.72;104194.43;1758356;81;21762;-77
2022/03/19 03:41:08;;;;;;;52.88;30.25;;;;;;;4.27;73.69;104191.20;1768213;81;21095;-77
2022/03/19 03:43:34;;;;;;;56.53;30.85;;;;;;;4.26;73.60;104189.34;1763862;81;21046;-77
2022/03/19 03:46:01;;;;;;;56.53;31.70;;;;;;;4.24;73.57;104190.88;1764511;81;21616;-77
2022/03/19 03:48:28;;;;;;;52.98;29.77;;;;;;;4.16;73.60;104190.45;1766103;81;21421;-74
2022/03/19 03:50:56;;;;;;;54.00;29.60;;;;;;;4.09;73.85;104192.42;1764438;80;21748;-76
2022/03/19 03:53:26;;;;;;;47.27;27.32;;;;;;;4.09;73.97;104191.47;1745403;80;21114;-75
2022/03/19 03:55:53;;;;;;;51.35;29.98;;;;;;;4.10;73.95;104197.23;1771482;80;21087;-76
2022/03/19 03:58:19;;;;;;;53.45;32.42;;;;;;;4.09;74.02;104194.08;1771350;80;21568;-76
2022/03/19 04:00:46;;;;;;;57.15;30.90;;;;;;;4.07;74.01;104194.30;1771160;80;20988;-77
2022/03/19 04:03:13;;;;;;;57.62;32.88;;;;;;;4.08;74.14;104197.46;1742535;80;22609;-76
2022/03/19 04:05:39;;;;;;;61.60;33.30;;;;;;;4.08;74.19;104194.85;1767684;80;21071;-76
2022/03/19 04:08:06;;;;;;;59.20;35.80;;;;;;;4.05;74.28;104198.42;1771163;80;21106;-76
2022/03/19 04:10:32;;;;;;;55.25;31.50;;;;;;;4.07;74.37;104197.85;1764582;80;21605;-76
2022/03/19 04:12:59;;;;;;;51.58;30.25;;;;;;;4.13;74.46;104206.70;1757720;80;21090;-75
2022/03/19 04:15:26;;;;;;;42.65;24.35;;;;;;;4.15;74.35;104201.63;1769175;80;23126;-75
2022/03/19 04:17:52;;;;;;;41.70;25.52;;;;;;;4.14;74.33;104199.80;1766642;80;21252;-76
2022/03/19 04:20:21;;;;;;;46.73;24.18;;;;;;;4.06;74.20;104203.81;1755909;80;21126;-75
2022/03/19 04:22:47;;;;;;;48.87;26.07;;;;;;;4.04;74.38;104204.03;1736859;82;22113;-76
2022/03/19 04:25:16;;;;;;;52.40;25.12;;;;;;;4.00;74.43;104210.06;1769640;80;21094;-76
2022/03/19 04:27:46;;;;;;;45.75;23.92;;;;;;;4.00;74.50;104216.59;1751785;80;21768;-76
2022/03/19 04:30:15;;;;;;;43.70;25.50;;;;;;;3.99;74.55;104223.84;1773031;79;21971;-76
2022/03/19 04:32:43;;;;;;;47.17;24.02;;;;;;;4.00;74.55;104229.62;1778695;80;21046;-76
2022/03/19 04:38:04;;;;;;;47.38;23.75;;;;;;;4.00;74.70;104230.53;1764938;80;21051;-76
2022/03/19 04:40:31;;;;;;;47.50;26.42;;;;;;;3.95;74.65;104237.31;1747074;80;21771;-76
2022/03/19 04:42:57;;;;;;;44.95;23.73;;;;;;;3.93;74.71;104240.13;1704014;81;21160;-77
2022/03/19 04:45:24;;;;;;;43.80;24.63;;;;;;;3.91;74.70;104238.66;1757379;80;21091;-76
2022/03/19 04:47:52;;;;;;;38.63;21.20;;;;;;;3.87;74.67;104240.39;1772501;80;21051;-76
2022/03/19 04:50:18;;;;;;;37.80;21.95;;;;;;;3.83;74.64;104249.56;1760277;80;21087;-77
2022/03/19 04:52:45;;;;;;;37.98;20.62;;;;;;;3.78;74.76;104243.30;1748497;80;21820;-77
2022/03/19 04:55:12;;;;;;;35.60;19.42;;;;;;;3.77;74.87;104246.27;1753705;80;21081;-77
2022/03/19 04:57:38;;;;;;;35.17;19.40;;;;;;;3.75;74.88;104246.87;1771197;80;21622;-77
2022/03/19 05:00:07;;;;;;;32.63;19.48;;;;;;;3.74;74.85;104257.68;1747170;80;21087;-78
2022/03/19 05:02:34;;;;;;;30.97;19.37;;;;;;;3.68;74.74;104263.14;1748565;80;21131;-78
2022/03/19 05:05:00;;;;;;;31.60;18.95;;;;;;;3.61;74.81;104261.00;1767615;80;21739;-78
2022/03/19 05:07:27;;;;;;;29.48;17.95;;;;;;;3.56;74.94;104261.78;1747137;80;21122;-77
2022/03/19 05:12:41;;;;;;;31.12;18.67;;;;;;;3.48;74.89;104278.27;1766070;80;21051;-80
2022/03/19 05:15:10;;;;;;;26.62;15.50;;;;;;;3.42;75.07;104282.80;1757046;80;21074;-79
2022/03/19 05:17:38;;;;;;;31.10;15.90;;;;;;;3.37;75.20;104287.48;1767132;80;21829;-79
2022/03/19 05:20:06;;;;;;;28.23;17.92;;;;;;;3.34;75.34;104289.77;1748054;80;21076;-78
2022/03/19 05:22:33;;;;;;;28.05;15.45;;;;;;;3.31;75.35;104295.54;1747237;80;21322;-79
2022/03/19 05:24:59;;;;;;;27.62;16.97;;;;;;;3.25;75.44;104296.55;1747180;80;21064;-80
2022/03/19 05:27:26;;;;;;;24.47;15.48;;;;;;;3.24;75.80;104298.20;1760724;79;21036;-79
2022/03/19 05:29:53;;;;;;;28.27;16.50;;;;;;;3.26;75.95;104291.88;1776703;80;21771;-80
2022/03/19 05:32:21;;;;;;;36.53;19.80;;;;;;;3.27;75.90;104286.84;1766723;81;21058;-79
2022/03/19 05:34:48;;;;;;;50.78;34.03;;;;;;;3.29;76.02;104293.14;1750694;81;21076;-80
2022/03/19 05:37:15;;;;;;;79.58;53.15;;;;;;;3.16;76.03;104273.01;1763016;81;21079;-80
2022/03/19 05:39:42;;;;;;;37.15;24.07;;;;;;;3.26;76.10;104290.19;1768716;81;21074;-80
2022/03/19 05:42:08;;;;;;;85.72;61.42;;;;;;;3.26;76.20;104289.27;1768295;81;21755;-76
2022/03/19 05:44:35;;;;;;;35.75;24.72;;;;;;;3.31;76.41;104303.73;1752958;80;21110;-77
2022/03/19 05:47:02;;;;;;;35.00;22.77;;;;;;;3.36;76.61;104305.18;1752368;81;21063;-77
2022/03/19 05:49:29;;;;;;;33.30;19.87;;;;;;;3.38;76.63;104301.06;1725272;82;21161;-77
2022/03/19 05:51:56;;;;;;;35.45;18.75;;;;;;;3.43;76.51;104291.14;1768593;81;20988;-81
2022/03/19 05:54:26;;;;;;;40.55;21.55;;;;;;;3.45;76.54;104306.20;1741936;81;21770;-78
2022/03/19 05:56:53;;;;;;;37.13;21.15;;;;;;;3.52;76.66;104307.80;1752257;81;21126;-79
2022/03/19 05:59:20;;;;;;;36.40;22.58;;;;;;;3.57;76.70;104301.42;1719577;81;21074;-80
2022/03/19 06:01:47;;;;;;;41.35;21.33;;;;;;;3.64;76.76;104305.61;1767001;81;21090;-80
2022/03/19 06:04:15;;;;;;;40.67;21.55;;;;;;;3.70;76.69;104307.61;1768507;80;21048;-79
2022/03/19 06:06:42;;;;;;;35.17;22.20;;;;;;;3.62;76.77;104296.70;1760610;80;21234;-79
2022/03/19 06:09:09;;;;;;;34.25;20.02;;;;;;;3.67;76.74;104317.30;1724854;82;21128;-80
2022/03/19 06:11:36;;;;;;;40.25;21.48;;;;;;;3.65;76.75;104317.89;1772138;80;21055;-80
2022/03/19 06:14:03;;;;;;;35.48;20.97;;;;;;;3.71;76.99;104317.26;1771593;80;21656;-79
2022/03/19 06:16:29;;;;;;;37.73;19.10;;;;;;;3.75;77.00;104316.83;1771882;80;21524;-79
2022/03/19 06:18:56;;;;;;;33.85;19.57;;;;;;;3.80;76.92;104317.36;1768002;80;21778;-80
2022/03/19 06:21:23;;;;;;;35.08;20.45;;;;;;;3.76;76.87;104320.00;1757252;80;21054;-80
2022/03/19 06:23:50;;;;;;;28.20;16.00;;;;;;;3.84;77.01;104323.45;1761306;80;21084;-81
2022/03/19 06:26:23;;;;;;;31.25;17.57;;;;;;;3.89;76.99;104331.41;1725642;80;21510;-80
2022/03/19 06:28:50;;;;;;;27.32;16.85;;;;;;;3.91;76.96;104333.80;1763739;80;21070;-80
2022/03/19 06:31:17;;;;;;;35.08;18.42;;;;;;;3.80;76.94;104312.15;1738452;81;21756;-80
2022/03/19 06:33:45;;;;;;;35.08;19.65;;;;;;;3.95;76.90;104341.19;1724604;81;21065;-81
2022/03/19 06:38:57;;;;;;;35.48;19.98;;;;;;;3.87;77.11;104351.16;1758904;80;21061;-81
2022/03/19 06:41:24;;;;;;;28.12;15.60;;;;;;;3.89;77.34;104350.95;1728753;81;21088;-81
2022/03/19 06:43:51;;;;;;;32.75;18.52;;;;;;;3.92;77.26;104349.05;1765036;80;21852;-81
2022/03/19 06:46:17;;;;;;;26.75;15.95;;;;;;;3.91;77.24;104359.86;1739040;81;21588;-81
2022/03/19 06:48:46;;;;;;;29.25;17.95;;;;;;;3.96;77.36;104352.17;1756977;80;21683;-77
2022/03/19 06:51:13;;;;;;;33.10;17.40;;;;;;;4.06;77.46;104367.14;1749338;80;21623;-76
2022/03/19 06:53:39;;;;;;;28.30;16.48;;;;;;;4.11;77.30;104363.72;1727383;81;21101;-76
2022/03/19 06:56:06;;;;;;;25.68;15.68;;;;;;;4.12;77.13;104369.09;1770483;80;22555;-81
2022/03/19 06:58:33;;;;;;;26.90;14.85;;;;;;;4.11;76.99;104371.18;1728248;81;21686;-78
2022/03/19 07:01:01;;;;;;;31.93;16.77;;;;;;;4.08;77.10;104374.74;1728284;81;21168;-77
2022/03/19 07:03:28;;;;;;;23.52;13.62;;;;;;;4.05;77.16;104377.00;1728300;81;21048;-77
2022/03/19 07:05:56;;;;;;;29.63;16.20;;;;;;;4.10;77.26;104381.05;1749708;81;21049;-81
2022/03/19 07:08:22;;;;;;;25.70;13.35;;;;;;;4.13;77.23;104381.75;1728932;81;21904;-81
2022/03/19 07:10:49;;;;;;;18.95;11.30;;;;;;;4.11;76.95;104381.61;1742051;80;21619;-81
2022/03/19 07:13:16;;;;;;;19.73;10.65;;;;;;;4.03;77.09;104383.73;1730152;81;22285;-82
2022/03/19 07:15:43;;;;;;;18.85;11.35;;;;;;;4.05;76.97;104384.47;1728992;81;21151;-81
2022/03/19 07:18:09;;;;;;;17.82;8.85;;;;;;;4.08;77.04;104387.39;1753174;80;21042;-81
2022/03/19 07:20:36;;;;;;;15.43;9.93;;;;;;;4.12;76.95;104386.05;1749635;80;21660;-81
2022/03/19 07:23:08;;;;;;;21.55;10.55;;;;;;;4.18;77.06;104388.41;1735684;81;21089;-81
2022/03/19 07:25:39;;;;;;;21.35;11.25;;;;;;;4.26;77.11;104386.24;1767398;80;21026;-81
2022/03/19 07:28:10;;;;;;;17.75;10.58;;;;;;;4.25;76.79;104390.54;1762124;80;38309;-81
2022/03/19 07:30:37;;;;;;;22.95;12.15;;;;;;;4.19;76.97;104394.18;1747804;80;21058;-82
2022/03/19 07:33:04;;;;;;;17.30;10.25;;;;;;;4.24;77.24;104384.80;1786931;80;22610;-81
2022/03/19 07:35:31;;;;;;;16.35;9.73;;;;;;;4.35;77.12;104398.06;1754929;80;21129;-81
2022/03/19 07:37:57;;;;;;;16.82;10.00;;;;;;;4.37;76.93;104405.67;1772521;80;21064;-78
2022/03/19 07:43:10;;;;;;;13.85;9.23;;;;;;;4.32;76.82;104409.10;1773032;80;21022;-76
2022/03/19 07:45:37;;;;;;;16.60;9.33;;;;;;;4.32;76.87;104410.76;1781722;80;21766;-77
2022/03/19 07:48:05;;;;;;;22.15;11.95;;;;;;;4.26;76.70;104411.02;1778772;80;21442;-77
2022/03/19 07:50:31;;;;;;;16.07;10.25;;;;;;;4.24;76.91;104410.88;1755121;80;21102;-77
2022/03/19 07:52:58;;;;;;;17.52;11.63;;;;;;;4.30;77.21;104413.23;1758985;80;21069;-78
2022/03/19 07:55:25;;;;;;;16.73;10.50;;;;;;;4.36;77.19;104411.67;1770259;80;21061;-78
2022/03/19 07:57:52;;;;;;;19.73;10.90;;;;;;;4.35;77.04;104409.41;1760451;80;21789;-76
2022/03/19 08:00:19;;;;;;;20.35;11.50;;;;;;;4.51;77.39;104408.11;1759036;80;21010;-80
2022/03/19 08:02:45;;;;;;;16.62;10.05;;;;;;;4.64;77.32;104401.23;1772643;80;21551;-81
2022/03/19 08:05:12;;;;;;;14.73;9.15;;;;;;;4.71;77.00;104412.88;1759759;80;21038;-81
2022/03/19 08:07:39;;;;;;;12.75;7.75;;;;;;;4.80;76.90;104411.23;1734134;80;21066;-80
2022/03/19 08:10:07;;;;;;;9.90;6.80;;;;;;;4.91;76.52;104418.00;1782277;80;22549;-80
2022/03/19 08:12:39;;;;;;;13.72;6.75;;;;;;;4.93;76.31;104414.78;1727362;80;21612;-83
2022/03/19 08:15:10;;;;;;;12.73;5.75;;;;;;;4.95;76.01;104411.03;1789719;80;21090;-85
2022/03/19 08:17:43;;;;;;;13.22;7.47;;;;;;;5.01;75.95;104416.90;1784833;79;21065;-88
2022/03/19 08:20:09;;;;;;;9.90;6.25;;;;;;;5.11;75.77;104417.13;1782378;80;21140;-76
2022/03/19 08:22:36;;;;;;;8.63;6.05;;;;;;;5.28;75.79;104421.92;1775914;80;21695;-77
2022/03/19 08:25:03;;;;;;;7.62;5.70;;;;;;;5.42;75.54;104419.05;1761613;80;21082;-76
2022/03/19 08:27:30;;;;;;;8.15;5.20;;;;;;;5.55;75.38;104418.26;1790519;80;21144;-78
2022/03/19 08:29:57;;;;;;;9.10;5.35;;;;;;;5.53;74.71;104426.33;1772641;80;21050;-77
2022/03/19 08:32:24;;;;;;;9.70;5.80;;;;;;;5.48;74.55;104430.53;1777640;80;21062;-78
2022/03/19 08:34:51;;;;;;;9.60;5.28;;;;;;;5.43;74.66;104430.06;1763260;80;21670;-78
2022/03/19 08:37:18;;;;;;;8.63;5.53;;;;;;;5.37;74.51;104434.26;1748302;80;21370;-77
2022/03/19 08:42:30;;;;;;;10.63;5.30;;;;;;;5.22;74.15;104430.95;1744588;80;21073;-77
2022/03/19 08:44:57;;;;;;;8.38;6.10;;;;;;;5.26;74.50;104432.20;1715882;82;21070;-77
2022/03/19 08:47:23;;;;;;;6.67;4.72;;;;;;;5.33;74.48;104439.93;1741245;80;21779;-77
2022/03/19 08:49:50;;;;;;;6.05;4.50;;;;;;;5.36;74.36;104446.77;1753265;80;21043;-77
2022/03/19 08:52:16;;;;;;;12.73;5.87;;;;;;;5.32;74.22;104448.52;1750144;80;21117;-77
2022/03/19 08:54:43;;;;;;;10.00;5.67;;;;;;;5.30;74.12;104447.82;1741072;81;21639;-78
2022/03/19 08:57:10;;;;;;;12.58;6.12;;;;;;;5.21;74.33;104447.77;1741311;80;21451;-77
2022/03/19 08:59:37;;;;;;;8.18;5.60;;;;;;;5.17;74.16;104449.50;1741283;81;21790;-77
2022/03/19 09:02:04;;;;;;;10.90;7.25;;;;;;;5.09;74.25;104457.84;1757577;80;21599;-77
2022/03/19 09:04:32;;;;;;;9.70;5.87;;;;;;;5.00;74.29;104453.84;1746459;80;21075;-78
2022/03/19 09:06:59;;;;;;;8.98;4.83;;;;;;;4.97;74.41;104457.42;1749124;81;21077;-77
2022/03/19 09:09:26;;;;;;;9.28;4.55;;;;;;;5.04;74.52;104461.62;1745302;80;21133;-77
2022/03/19 09:11:52;;;;;;;7.42;4.60;;;;;;;5.09;74.36;104465.67;1752480;80;22658;-77
2022/03/19 09:14:20;;;;;;;11.57;5.12;;;;;;;5.14;74.30;104465.75;1751324;80;20996;-77
2022/03/19 09:16:46;;;;;;;10.18;5.53;;;;;;;5.16;74.32;104468.18;1762720;80;21058;-77
2022/03/19 09:19:13;;;;;;;7.67;5.17;;;;;;;5.24;74.46;104467.30;1741174;80;21055;-77
2022/03/19 09:21:40;;;;;;;12.00;6.85;;;;;;;5.37;74.50;104464.30;1741078;81;21059;-77
2022/03/19 09:24:06;;;;;;;9.78;6.25;;;;;;;5.36;74.19;104471.58;1750165;81;22569;-77
2022/03/19 09:26:33;;;;;;;10.93;5.97;;;;;;;5.26;74.12;104474.91;1744373;80;21102;-78
2022/03/19 09:29:00;;;;;;;10.15;6.35;;;;;;;5.18;74.24;104476.15;1753469;80;21066;-77
2022/03/19 09:31:27;;;;;;;10.70;4.87;;;;;;;5.13;74.36;104478.67;1749572;80;21613;-78
2022/03/19 09:33:54;;;;;;;15.65;10.18;;;;;;;5.16;74.26;104474.71;1751434;81;21087;-78
2022/03/19 09:36:21;;;;;;;10.58;5.95;;;;;;;5.09;74.14;104480.39;1757554;80;21811;-78
2022/03/19 09:38:47;;;;;;;13.72;7.62;;;;;;;5.05;74.08;104474.86;1762588;80;21031;-78
2022/03/19 09:41:14;;;;;;;8.95;5.20;;;;;;;5.11;74.33;104474.98;1728125;80;21050;-78
2022/03/19 09:43:42;;;;;;;8.43;5.05;;;;;;;5.21;74.11;104485.23;1728059;80;21070;-78
2022/03/19 09:46:08;;;;;;;11.00;5.00;;;;;;;5.20;74.10;104470.35;1728388;80;21089;-78
2022/03/19 09:48:35;;;;;;;6.85;5.22;;;;;;;5.34;74.13;104493.09;1728231;80;21734;-78
2022/03/19 09:51:02;;;;;;;8.45;5.22;;;;;;;5.36;73.84;104478.50;1753884;80;21046;-78
2022/03/19 09:53:28;;;;;;;9.10;4.87;;;;;;;5.38;73.96;104484.42;1759572;80;21663;-78
2022/03/19 09:55:57;;;;;;;8.35;5.50;;;;;;;5.29;73.55;104491.67;1749557;80;21063;-78
2022/03/19 09:58:24;;;;;;;9.98;5.10;;;;;;;5.23;73.84;104485.02;1728140;81;21539;-78
2022/03/19 10:00:50;;;;;;;8.20;5.25;;;;;;;5.31;74.03;104484.56;1728286;80;21912;-78
2022/03/19 10:03:22;;;;;;;8.63;5.17;;;;;;;5.36;74.08;104492.48;1748733;80;21634;-78
2022/03/19 10:08:37;;;;;;;8.15;6.15;;;;;;;5.40;73.83;104487.20;1739541;80;21463;-78
2022/03/19 10:11:08;;;;;;;7.12;5.95;;;;;;;5.41;73.85;104499.13;1733850;80;21081;-78
2022/03/19 10:13:46;;;;;;;8.83;6.20;;;;;;;5.44;73.93;104506.36;1739137;80;21799;-78
2022/03/19 10:16:10;;;;;;;7.72;5.47;;;;;;;5.47;74.04;104497.94;1758493;80;21090;-78
2022/03/19 10:18:37;;;;;;;7.20;5.58;;;;;;;5.51;73.71;104495.80;1776508;80;21103;-78
2022/03/19 10:21:15;;;;;;;11.30;5.33;;;;;;;5.54;73.74;104491.30;1738997;81;21089;-78
2022/03/19 10:23:42;;;;;;;6.33;5.60;;;;;;;5.59;73.68;104492.33;1738432;80;21063;-78
2022/03/19 10:26:27;;;;;;;6.83;5.50;;;;;;;5.58;73.48;104498.30;1739051;80;22016;-78
2022/03/19 10:29:00;;;;;;;6.90;4.50;;;;;;;5.57;73.53;104486.38;1725389;81;21291;-78
2022/03/19 10:31:31;;;;;;;5.87;4.55;;;;;;;5.64;73.69;104490.19;1693971;82;21102;-78
2022/03/19 10:33:57;;;;;;;7.97;4.55;;;;;;;5.80;73.70;104491.03;1741100;81;21086;-78
2022/03/19 10:36:33;;;;;;;7.50;5.70;;;;;;;5.95;73.59;104499.59;1705715;83;21559;-77
2022/03/19 10:39:02;;;;;;;6.10;4.62;;;;;;;6.08;73.40;104487.41;1715681;82;21775;-78
2022/03/19 10:41:31;;;;;;;8.88;4.80;;;;;;;6.17;73.06;104496.56;1707012;81;21516;-78
2022/03/19 10:43:58;;;;;;;8.68;6.03;;;;;;;6.17;72.92;104501.80;1684905;83;21114;-77
2022/03/19 10:46:25;;;;;;;9.15;5.55;;;;;;;6.15;72.68;104495.09;1686788;83;21086;-77
2022/03/19 10:48:54;;;;;;;8.30;6.55;;;;;;;6.11;72.61;104499.87;1706113;82;21168;-77
2022/03/19 10:51:21;;;;;;;10.55;7.12;;;;;;;6.10;72.79;104501.92;1705799;82;21802;-76
2022/03/19 10:53:49;;;;;;;11.08;8.43;;;;;;;6.16;72.82;104510.04;1705669;82;21126;-84
2022/03/19 10:56:17;;;;;;;19.90;11.25;;;;;;;6.20;73.02;104503.44;1712857;82;22257;-77
2022/03/19 10:58:44;;;;;;;10.65;8.00;;;;;;;6.28;72.76;104501.20;1729246;82;21347;-78
2022/03/19 11:01:13;;;;;;;379.82;228.25;;;;;;;6.32;72.88;104498.13;1744636;81;21090;-78
2022/03/19 11:03:42;;;;;;;78.62;48.78;;;;;;;6.41;72.67;104491.63;1720808;83;22476;-78
2022/03/19 11:06:09;;;;;;;95.38;78.55;;;;;;;6.54;72.96;104497.73;1746049;81;21036;-77
2022/03/19 11:08:43;;;;;;;62.93;56.25;;;;;;;6.72;72.91;104500.91;1737676;81;21563;-76
2022/03/19 11:11:20;;;;;;;13.20;10.72;;;;;;;6.75;72.55;104501.19;1746461;81;21157;-77
2022/03/19 11:13:52;;;;;;;23.42;16.12;;;;;;;6.87;72.42;104501.88;1740835;81;21333;-77
2022/03/19 11:16:19;;;;;;;12.47;9.20;;;;;;;6.87;72.10;104501.88;1708476;81;21774;-77
2022/03/19 11:18:47;;;;;;;15.35;8.80;;;;;;;6.94;72.02;104492.56;1738522;81;22303;-77
2022/03/19 11:21:14;;;;;;;13.70;10.75;;;;;;;6.86;71.83;104491.80;1745910;81;21058;-78
2022/03/19 11:23:58;;;;;;;19.27;15.80;;;;;;;6.90;71.98;104485.18;1729895;82;21486;-78
2022/03/19 11:26:27;;;;;;;15.78;11.28;;;;;;;7.06;71.98;104483.33;1747211;81;28073;-78
2022/03/19 11:28:53;;;;;;;28.23;20.17;;;;;;;7.11;71.50;104485.98;1742535;81;22568;-78
2022/03/19 11:31:29;;;;;;;12.78;9.48;;;;;;;7.15;71.64;104485.55;1741652;81;21157;-78
2022/03/19 11:34:18;;;;;;;17.00;11.53;;;;;;;7.20;71.41;104479.04;1725629;82;21089;-78
2022/03/19 11:36:57;;;;;;;12.33;9.40;;;;;;;7.27;71.31;104474.43;1737587;81;21085;-77
2022/03/19 11:39:23;;;;;;;16.70;11.03;;;;;;;7.36;71.34;104474.94;1737444;81;21125;-78
2022/03/19 11:41:51;;;;;;;18.00;11.00;;;;;;;7.50;71.38;104474.05;1731389;82;21746;-79
2022/03/19 11:44:23;;;;;;;15.25;9.25;;;;;;;7.71;71.39;104470.86;1727218;81;21071;-78